sensor_id;sensor_type;location;lat;lon;timestamp;P1;durP1;ratioP1;P2;durP2;ratioP2
72715;SDS011;60830;64.560;40.542;2022-11-22T00:01:41;5.10;;;4.03;;
72715;SDS011;60830;64.560;40.542;2022-11-22T00:04:07;4.20;;;3.33;;
72715;SDS011;60830;64.560;40.542;2022-11-22T00:06:33;3.70;;;3.40;;
72715;SDS011;60830;64.560;40.542;2022-11-22T00:08:59;3.97;;;3.63;;
72715;SDS011;60830;64.560;40.542;2022-11-22T00:11:25;3.75;;;3.45;;
72715;SDS011;60830;64.560;40.542;2022-11-22T00:13:51;3.58;;;3.22;;
72715;SDS011;60830;64.560;40.542;2022-11-22T00:16:17;4.25;;;2.80;;
72715;SDS011;60830;64.560;40.542;2022-11-22T00:18:43;3.25;;;2.95;;
72715;SDS011;60830;64.560;40.542;2022-11-22T00:21:09;3.60;;;3.13;;
72715;SDS011;60830;64.560;40.542;2022-11-22T00:23:35;2.85;;;2.55;;
72715;SDS011;60830;64.560;40.542;2022-11-22T00:26:01;4.53;;;2.40;;
72715;SDS011;60830;64.560;40.542;2022-11-22T00:28:27;2.42;;;2.22;;
72715;SDS011;60830;64.560;40.542;2022-11-22T00:30:53;2.58;;;2.22;;
72715;SDS011;60830;64.560;40.542;2022-11-22T00:33:19;2.70;;;2.50;;
72715;SDS011;60830;64.560;40.542;2022-11-22T00:35:45;3.08;;;2.85;;
72715;SDS011;60830;64.560;40.542;2022-11-22T00:38:11;4.50;;;2.60;;
72715;SDS011;60830;64.560;40.542;2022-11-22T00:40:37;2.88;;;2.50;;
72715;SDS011;60830;64.560;40.542;2022-11-22T00:43:03;3.45;;;2.75;;
72715;SDS011;60830;64.560;40.542;2022-11-22T00:45:29;3.63;;;3.30;;
72715;SDS011;60830;64.560;40.542;2022-11-22T00:47:55;6.07;;;3.60;;
72715;SDS011;60830;64.560;40.542;2022-11-22T00:50:21;4.07;;;3.40;;
72715;SDS011;60830;64.560;40.542;2022-11-22T00:52:47;3.45;;;2.92;;
72715;SDS011;60830;64.560;40.542;2022-11-22T00:55:13;4.78;;;3.15;;
72715;SDS011;60830;64.560;40.542;2022-11-22T00:57:39;3.95;;;2.58;;
72715;SDS011;60830;64.560;40.542;2022-11-22T01:00:05;3.38;;;3.08;;
72715;SDS011;60830;64.560;40.542;2022-11-22T01:02:32;4.10;;;3.22;;
72715;SDS011;60830;64.560;40.542;2022-11-22T01:04:58;3.42;;;2.92;;
72715;SDS011;60830;64.560;40.542;2022-11-22T01:07:24;4.53;;;3.13;;
72715;SDS011;60830;64.560;40.542;2022-11-22T01:09:50;3.60;;;3.30;;
72715;SDS011;60830;64.560;40.542;2022-11-22T01:12:16;4.15;;;3.75;;
72715;SDS011;60830;64.560;40.542;2022-11-22T01:14:42;5.07;;;4.22;;
72715;SDS011;60830;64.560;40.542;2022-11-22T01:17:08;5.68;;;4.38;;
72715;SDS011;60830;64.560;40.542;2022-11-22T01:19:34;4.43;;;3.97;;
72715;SDS011;60830;64.560;40.542;2022-11-22T01:22:00;5.05;;;4.55;;
72715;SDS011;60830;64.560;40.542;2022-11-22T01:24:26;6.72;;;4.68;;
72715;SDS011;60830;64.560;40.542;2022-11-22T01:26:52;5.32;;;4.70;;
72715;SDS011;60830;64.560;40.542;2022-11-22T01:29:18;5.32;;;4.22;;
72715;SDS011;60830;64.560;40.542;2022-11-22T01:31:44;6.28;;;4.50;;
72715;SDS011;60830;64.560;40.542;2022-11-22T01:34:10;5.38;;;4.00;;
72715;SDS011;60830;64.560;40.542;2022-11-22T01:36:36;4.18;;;3.78;;
72715;SDS011;60830;64.560;40.542;2022-11-22T01:39:02;5.95;;;3.97;;
72715;SDS011;60830;64.560;40.542;2022-11-22T01:41:28;5.03;;;4.15;;
72715;SDS011;60830;64.560;40.542;2022-11-22T01:43:54;5.45;;;4.20;;
72715;SDS011;60830;64.560;40.542;2022-11-22T01:46:26;6.38;;;4.07;;
72715;SDS011;60830;64.560;40.542;2022-11-22T01:48:56;5.93;;;3.80;;
72715;SDS011;60830;64.560;40.542;2022-11-22T01:51:34;5.43;;;3.90;;
72715;SDS011;60830;64.560;40.542;2022-11-22T01:54:03;7.05;;;4.32;;
72715;SDS011;60830;64.560;40.542;2022-11-22T01:56:31;6.80;;;4.47;;
72715;SDS011;60830;64.560;40.542;2022-11-22T01:58:58;7.47;;;4.90;;
72715;SDS011;60830;64.560;40.542;2022-11-22T02:01:25;6.45;;;4.90;;
72715;SDS011;60830;64.560;40.542;2022-11-22T02:03:52;5.65;;;4.80;;
72715;SDS011;60830;64.560;40.542;2022-11-22T02:06:19;8.35;;;4.93;;
72715;SDS011;60830;64.560;40.542;2022-11-22T02:08:51;5.55;;;4.90;;
72715;SDS011;60830;64.560;40.542;2022-11-22T02:11:19;6.00;;;4.47;;
72715;SDS011;60830;64.560;40.542;2022-11-22T02:13:45;7.72;;;4.93;;
72715;SDS011;60830;64.560;40.542;2022-11-22T02:16:11;6.47;;;4.70;;
72715;SDS011;60830;64.560;40.542;2022-11-22T02:18:37;6.65;;;5.07;;
72715;SDS011;60830;64.560;40.542;2022-11-22T02:21:04;5.68;;;4.60;;
72715;SDS011;60830;64.560;40.542;2022-11-22T02:26:00;7.35;;;5.68;;
72715;SDS011;60830;64.560;40.542;2022-11-22T02:28:27;8.05;;;5.47;;
72715;SDS011;60830;64.560;40.542;2022-11-22T02:30:55;7.47;;;5.15;;
72715;SDS011;60830;64.560;40.542;2022-11-22T02:33:21;6.70;;;5.25;;
72715;SDS011;60830;64.560;40.542;2022-11-22T02:35:47;7.40;;;5.53;;
72715;SDS011;60830;64.560;40.542;2022-11-22T02:38:14;6.85;;;6.25;;
72715;SDS011;60830;64.560;40.542;2022-11-22T02:40:43;9.90;;;7.20;;
72715;SDS011;60830;64.560;40.542;2022-11-22T02:43:10;8.05;;;6.97;;
72715;SDS011;60830;64.560;40.542;2022-11-22T02:45:38;9.60;;;6.85;;
72715;SDS011;60830;64.560;40.542;2022-11-22T02:48:08;9.93;;;7.88;;
72715;SDS011;60830;64.560;40.542;2022-11-22T02:50:34;9.70;;;7.25;;
72715;SDS011;60830;64.560;40.542;2022-11-22T02:53:00;9.75;;;8.50;;
72715;SDS011;60830;64.560;40.542;2022-11-22T02:55:26;11.40;;;7.72;;
72715;SDS011;60830;64.560;40.542;2022-11-22T02:57:53;12.55;;;8.82;;
72715;SDS011;60830;64.560;40.542;2022-11-22T03:00:19;10.10;;;8.25;;
72715;SDS011;60830;64.560;40.542;2022-11-22T03:02:45;14.27;;;8.65;;
72715;SDS011;60830;64.560;40.542;2022-11-22T03:05:11;10.70;;;7.60;;
72715;SDS011;60830;64.560;40.542;2022-11-22T03:07:38;7.63;;;6.35;;
72715;SDS011;60830;64.560;40.542;2022-11-22T03:10:04;13.43;;;7.60;;
72715;SDS011;60830;64.560;40.542;2022-11-22T03:12:30;10.00;;;6.68;;
72715;SDS011;60830;64.560;40.542;2022-11-22T03:14:56;8.32;;;7.10;;
72715;SDS011;60830;64.560;40.542;2022-11-22T03:17:22;11.75;;;7.70;;
72715;SDS011;60830;64.560;40.542;2022-11-22T03:19:48;10.82;;;7.60;;
72715;SDS011;60830;64.560;40.542;2022-11-22T03:22:14;9.32;;;7.25;;
72715;SDS011;60830;64.560;40.542;2022-11-22T03:24:40;10.55;;;6.72;;
72715;SDS011;60830;64.560;40.542;2022-11-22T03:27:06;12.07;;;6.40;;
72715;SDS011;60830;64.560;40.542;2022-11-22T03:29:32;8.73;;;6.15;;
72715;SDS011;60830;64.560;40.542;2022-11-22T03:31:58;12.48;;;7.85;;
72715;SDS011;60830;64.560;40.542;2022-11-22T03:34:24;11.30;;;7.05;;
72715;SDS011;60830;64.560;40.542;2022-11-22T03:36:50;12.13;;;6.78;;
72715;SDS011;60830;64.560;40.542;2022-11-22T03:39:16;8.35;;;6.40;;
72715;SDS011;60830;64.560;40.542;2022-11-22T03:41:43;9.05;;;6.07;;
72715;SDS011;60830;64.560;40.542;2022-11-22T03:44:09;8.80;;;5.95;;
72715;SDS011;60830;64.560;40.542;2022-11-22T03:46:35;7.22;;;5.82;;
72715;SDS011;60830;64.560;40.542;2022-11-22T03:49:01;8.88;;;6.20;;
72715;SDS011;60830;64.560;40.542;2022-11-22T03:51:27;10.18;;;6.30;;
72715;SDS011;60830;64.560;40.542;2022-11-22T03:53:53;4.15;;;3.00;;
72715;SDS011;60830;64.560;40.542;2022-11-22T03:56:19;4.85;;;3.78;;
72715;SDS011;60830;64.560;40.542;2022-11-22T03:58:45;7.43;;;4.82;;
72715;SDS011;60830;64.560;40.542;2022-11-22T04:01:11;7.20;;;4.93;;
72715;SDS011;60830;64.560;40.542;2022-11-22T04:03:37;7.70;;;5.00;;
72715;SDS011;60830;64.560;40.542;2022-11-22T04:06:03;8.90;;;5.28;;
72715;SDS011;60830;64.560;40.542;2022-11-22T04:08:29;6.65;;;4.57;;
72715;SDS011;60830;64.560;40.542;2022-11-22T04:10:56;10.10;;;4.85;;
72715;SDS011;60830;64.560;40.542;2022-11-22T04:13:22;5.30;;;4.00;;
72715;SDS011;60830;64.560;40.542;2022-11-22T04:16:08;7.20;;;4.03;;
72715;SDS011;60830;64.560;40.542;2022-11-22T04:18:34;6.25;;;3.75;;
72715;SDS011;60830;64.560;40.542;2022-11-22T04:21:00;4.85;;;3.65;;
72715;SDS011;60830;64.560;40.542;2022-11-22T04:23:44;7.72;;;4.53;;
72715;SDS011;60830;64.560;40.542;2022-11-22T04:26:30;5.43;;;4.10;;
72715;SDS011;60830;64.560;40.542;2022-11-22T04:28:56;4.53;;;3.55;;
72715;SDS011;60830;64.560;40.542;2022-11-22T04:31:22;5.40;;;4.03;;
72715;SDS011;60830;64.560;40.542;2022-11-22T04:34:07;3.70;;;3.03;;
72715;SDS011;60830;64.560;40.542;2022-11-22T04:36:33;3.97;;;3.03;;
72715;SDS011;60830;64.560;40.542;2022-11-22T04:38:59;3.42;;;2.75;;
72715;SDS011;60830;64.560;40.542;2022-11-22T04:41:25;6.05;;;3.60;;
72715;SDS011;60830;64.560;40.542;2022-11-22T04:43:51;2.50;;;2.30;;
72715;SDS011;60830;64.560;40.542;2022-11-22T04:46:36;4.65;;;2.78;;
72715;SDS011;60830;64.560;40.542;2022-11-22T04:49:03;6.35;;;3.13;;
72715;SDS011;60830;64.560;40.542;2022-11-22T04:51:29;4.15;;;2.92;;
72715;SDS011;60830;64.560;40.542;2022-11-22T04:54:13;4.43;;;3.88;;
72715;SDS011;60830;64.560;40.542;2022-11-22T04:56:39;9.75;;;4.35;;
72715;SDS011;60830;64.560;40.542;2022-11-22T04:59:05;10.63;;;4.22;;
72715;SDS011;60830;64.560;40.542;2022-11-22T05:01:31;6.07;;;3.70;;
72715;SDS011;60830;64.560;40.542;2022-11-22T05:03:57;6.13;;;4.53;;
72715;SDS011;60830;64.560;40.542;2022-11-22T05:06:23;4.80;;;3.78;;
72715;SDS011;60830;64.560;40.542;2022-11-22T05:08:49;10.90;;;5.03;;
72715;SDS011;60830;64.560;40.542;2022-11-22T05:11:15;5.93;;;3.63;;
72715;SDS011;60830;64.560;40.542;2022-11-22T05:13:42;3.85;;;3.20;;
72715;SDS011;60830;64.560;40.542;2022-11-22T05:16:09;5.00;;;3.95;;
72715;SDS011;60830;64.560;40.542;2022-11-22T05:18:35;4.85;;;3.80;;
72715;SDS011;60830;64.560;40.542;2022-11-22T05:21:11;5.35;;;3.55;;
72715;SDS011;60830;64.560;40.542;2022-11-22T05:23:38;5.32;;;3.70;;
72715;SDS011;60830;64.560;40.542;2022-11-22T05:26:26;7.43;;;3.13;;
72715;SDS011;60830;64.560;40.542;2022-11-22T05:28:53;4.30;;;3.45;;
72715;SDS011;60830;64.560;40.542;2022-11-22T05:31:20;6.35;;;4.45;;
72715;SDS011;60830;64.560;40.542;2022-11-22T05:33:48;4.95;;;4.20;;
72715;SDS011;60830;64.560;40.542;2022-11-22T05:36:15;4.55;;;3.45;;
72715;SDS011;60830;64.560;40.542;2022-11-22T05:38:41;3.40;;;3.10;;
72715;SDS011;60830;64.560;40.542;2022-11-22T05:41:08;4.03;;;3.20;;
72715;SDS011;60830;64.560;40.542;2022-11-22T05:43:34;6.43;;;4.72;;
72715;SDS011;60830;64.560;40.542;2022-11-22T05:46:04;4.10;;;3.30;;
72715;SDS011;60830;64.560;40.542;2022-11-22T05:48:31;6.03;;;3.28;;
72715;SDS011;60830;64.560;40.542;2022-11-22T05:50:57;6.20;;;3.95;;
72715;SDS011;60830;64.560;40.542;2022-11-22T05:53:23;9.27;;;5.05;;
72715;SDS011;60830;64.560;40.542;2022-11-22T05:55:49;6.75;;;4.63;;
72715;SDS011;60830;64.560;40.542;2022-11-22T05:58:15;5.05;;;3.83;;
72715;SDS011;60830;64.560;40.542;2022-11-22T06:00:41;5.80;;;3.58;;
72715;SDS011;60830;64.560;40.542;2022-11-22T06:03:07;6.60;;;4.53;;
72715;SDS011;60830;64.560;40.542;2022-11-22T06:05:33;4.15;;;3.65;;
72715;SDS011;60830;64.560;40.542;2022-11-22T06:07:59;6.45;;;4.00;;
72715;SDS011;60830;64.560;40.542;2022-11-22T06:10:27;7.72;;;4.80;;
72715;SDS011;60830;64.560;40.542;2022-11-22T06:12:53;6.45;;;4.78;;
72715;SDS011;60830;64.560;40.542;2022-11-22T06:15:20;6.15;;;4.32;;
72715;SDS011;60830;64.560;40.542;2022-11-22T06:17:46;7.05;;;5.10;;
72715;SDS011;60830;64.560;40.542;2022-11-22T06:20:12;7.00;;;4.57;;
72715;SDS011;60830;64.560;40.542;2022-11-22T06:22:38;5.15;;;4.25;;
72715;SDS011;60830;64.560;40.542;2022-11-22T06:25:04;6.20;;;4.65;;
72715;SDS011;60830;64.560;40.542;2022-11-22T06:27:30;6.13;;;4.22;;
72715;SDS011;60830;64.560;40.542;2022-11-22T06:29:57;7.28;;;4.75;;
72715;SDS011;60830;64.560;40.542;2022-11-22T06:32:23;5.75;;;4.55;;
72715;SDS011;60830;64.560;40.542;2022-11-22T06:34:49;5.50;;;4.18;;
72715;SDS011;60830;64.560;40.542;2022-11-22T06:37:15;7.45;;;4.47;;
72715;SDS011;60830;64.560;40.542;2022-11-22T06:39:41;5.32;;;4.43;;
72715;SDS011;60830;64.560;40.542;2022-11-22T06:42:07;6.93;;;5.57;;
72715;SDS011;60830;64.560;40.542;2022-11-22T06:44:33;5.05;;;4.53;;
72715;SDS011;60830;64.560;40.542;2022-11-22T06:46:59;8.55;;;5.30;;
72715;SDS011;60830;64.560;40.542;2022-11-22T06:49:25;5.18;;;4.45;;
72715;SDS011;60830;64.560;40.542;2022-11-22T06:51:51;4.25;;;3.13;;
72715;SDS011;60830;64.560;40.542;2022-11-22T06:54:17;3.47;;;2.60;;
72715;SDS011;60830;64.560;40.542;2022-11-22T06:56:43;4.88;;;3.35;;
72715;SDS011;60830;64.560;40.542;2022-11-22T06:59:09;4.72;;;3.47;;
72715;SDS011;60830;64.560;40.542;2022-11-22T07:01:35;6.93;;;3.75;;
72715;SDS011;60830;64.560;40.542;2022-11-22T07:04:02;5.15;;;4.65;;
72715;SDS011;60830;64.560;40.542;2022-11-22T07:06:29;4.90;;;3.67;;
72715;SDS011;60830;64.560;40.542;2022-11-22T07:08:56;4.70;;;3.78;;
72715;SDS011;60830;64.560;40.542;2022-11-22T07:11:24;4.75;;;4.15;;
72715;SDS011;60830;64.560;40.542;2022-11-22T07:13:50;4.05;;;3.67;;
72715;SDS011;60830;64.560;40.542;2022-11-22T07:16:17;3.25;;;3.00;;
72715;SDS011;60830;64.560;40.542;2022-11-22T07:18:43;3.08;;;2.47;;
72715;SDS011;60830;64.560;40.542;2022-11-22T07:21:11;3.05;;;2.75;;
72715;SDS011;60830;64.560;40.542;2022-11-22T07:23:37;4.40;;;3.08;;
72715;SDS011;60830;64.560;40.542;2022-11-22T07:26:04;5.22;;;3.65;;
72715;SDS011;60830;64.560;40.542;2022-11-22T07:28:30;3.05;;;2.75;;
72715;SDS011;60830;64.560;40.542;2022-11-22T07:31:00;3.45;;;2.72;;
72715;SDS011;60830;64.560;40.542;2022-11-22T07:33:27;3.20;;;2.75;;
72715;SDS011;60830;64.560;40.542;2022-11-22T07:35:53;5.43;;;3.13;;
72715;SDS011;60830;64.560;40.542;2022-11-22T07:38:19;4.57;;;3.17;;
72715;SDS011;60830;64.560;40.542;2022-11-22T07:40:46;3.85;;;2.72;;
72715;SDS011;60830;64.560;40.542;2022-11-22T07:43:12;3.45;;;3.15;;
72715;SDS011;60830;64.560;40.542;2022-11-22T07:45:38;3.42;;;3.13;;
72715;SDS011;60830;64.560;40.542;2022-11-22T07:48:04;3.50;;;3.20;;
72715;SDS011;60830;64.560;40.542;2022-11-22T07:50:30;4.38;;;2.97;;
72715;SDS011;60830;64.560;40.542;2022-11-22T07:52:57;3.88;;;2.78;;
72715;SDS011;60830;64.560;40.542;2022-11-22T07:55:23;5.40;;;3.33;;
72715;SDS011;60830;64.560;40.542;2022-11-22T07:57:50;4.85;;;3.45;;
72715;SDS011;60830;64.560;40.542;2022-11-22T08:00:17;8.10;;;3.50;;
72715;SDS011;60830;64.560;40.542;2022-11-22T08:02:43;4.47;;;4.05;;
72715;SDS011;60830;64.560;40.542;2022-11-22T08:05:09;4.88;;;3.33;;
72715;SDS011;60830;64.560;40.542;2022-11-22T08:07:35;3.00;;;2.53;;
72715;SDS011;60830;64.560;40.542;2022-11-22T08:10:02;3.83;;;3.10;;
72715;SDS011;60830;64.560;40.542;2022-11-22T08:12:28;4.40;;;3.08;;
72715;SDS011;60830;64.560;40.542;2022-11-22T08:14:54;4.70;;;3.75;;
72715;SDS011;60830;64.560;40.542;2022-11-22T08:17:20;7.05;;;3.97;;
72715;SDS011;60830;64.560;40.542;2022-11-22T08:19:46;4.63;;;3.80;;
72715;SDS011;60830;64.560;40.542;2022-11-22T08:22:14;4.05;;;3.47;;
72715;SDS011;60830;64.560;40.542;2022-11-22T08:24:40;3.47;;;3.17;;
72715;SDS011;60830;64.560;40.542;2022-11-22T08:27:06;4.40;;;3.35;;
72715;SDS011;60830;64.560;40.542;2022-11-22T08:29:32;5.75;;;3.13;;
72715;SDS011;60830;64.560;40.542;2022-11-22T08:31:58;4.20;;;3.65;;
72715;SDS011;60830;64.560;40.542;2022-11-22T08:34:24;3.50;;;3.17;;
72715;SDS011;60830;64.560;40.542;2022-11-22T08:36:50;3.92;;;3.08;;
72715;SDS011;60830;64.560;40.542;2022-11-22T08:39:16;3.78;;;3.35;;
72715;SDS011;60830;64.560;40.542;2022-11-22T08:41:42;3.83;;;3.08;;
72715;SDS011;60830;64.560;40.542;2022-11-22T08:44:08;4.50;;;4.10;;
72715;SDS011;60830;64.560;40.542;2022-11-22T08:46:34;4.78;;;3.15;;
72715;SDS011;60830;64.560;40.542;2022-11-22T08:49:00;3.97;;;3.22;;
72715;SDS011;60830;64.560;40.542;2022-11-22T08:51:28;3.00;;;2.70;;
72715;SDS011;60830;64.560;40.542;2022-11-22T08:53:54;5.03;;;3.38;;
72715;SDS011;60830;64.560;40.542;2022-11-22T08:56:20;3.92;;;3.33;;
72715;SDS011;60830;64.560;40.542;2022-11-22T08:58:46;3.42;;;3.13;;
72715;SDS011;60830;64.560;40.542;2022-11-22T09:01:14;5.43;;;3.25;;
72715;SDS011;60830;64.560;40.542;2022-11-22T09:03:41;4.28;;;3.15;;
72715;SDS011;60830;64.560;40.542;2022-11-22T09:06:11;5.45;;;3.58;;
72715;SDS011;60830;64.560;40.542;2022-11-22T09:08:37;4.28;;;2.72;;
72715;SDS011;60830;64.560;40.542;2022-11-22T09:11:07;3.15;;;1.77;;
72715;SDS011;60830;64.560;40.542;2022-11-22T09:13:34;3.83;;;2.45;;
72715;SDS011;60830;64.560;40.542;2022-11-22T09:16:01;2.00;;;1.80;;
72715;SDS011;60830;64.560;40.542;2022-11-22T09:18:27;2.60;;;2.40;;
72715;SDS011;60830;64.560;40.542;2022-11-22T09:20:57;2.35;;;2.15;;
72715;SDS011;60830;64.560;40.542;2022-11-22T09:23:23;2.53;;;2.33;;
72715;SDS011;60830;64.560;40.542;2022-11-22T09:25:56;4.75;;;2.72;;
72715;SDS011;60830;64.560;40.542;2022-11-22T09:28:22;3.08;;;1.92;;
72715;SDS011;60830;64.560;40.542;2022-11-22T09:30:48;3.35;;;2.40;;
72715;SDS011;60830;64.560;40.542;2022-11-22T09:33:14;2.08;;;1.88;;
72715;SDS011;60830;64.560;40.542;2022-11-22T09:35:40;3.33;;;2.50;;
72715;SDS011;60830;64.560;40.542;2022-11-22T09:38:06;2.42;;;2.22;;
72715;SDS011;60830;64.560;40.542;2022-11-22T09:40:34;2.38;;;2.17;;
72715;SDS011;60830;64.560;40.542;2022-11-22T09:43:09;2.60;;;2.40;;
72715;SDS011;60830;64.560;40.542;2022-11-22T09:53:39;2.63;;;2.30;;
72715;SDS011;60830;64.560;40.542;2022-11-22T09:56:09;2.53;;;2.22;;
72715;SDS011;60830;64.560;40.542;2022-11-22T09:58:41;1.98;;;1.88;;
72715;SDS011;60830;64.560;40.542;2022-11-22T10:03:39;2.55;;;2.35;;
72715;SDS011;60830;64.560;40.542;2022-11-22T10:06:07;2.85;;;2.22;;
72715;SDS011;60830;64.560;40.542;2022-11-22T10:08:42;2.17;;;2.08;;
72715;SDS011;60830;64.560;40.542;2022-11-22T10:14:24;2.05;;;1.85;;
72715;SDS011;60830;64.560;40.542;2022-11-22T10:16:54;2.38;;;2.10;;
72715;SDS011;60830;64.560;40.542;2022-11-22T10:19:36;3.78;;;2.50;;
72715;SDS011;60830;64.560;40.542;2022-11-22T10:22:12;3.05;;;2.75;;
72715;SDS011;60830;64.560;40.542;2022-11-22T10:24:39;3.95;;;2.30;;
72715;SDS011;60830;64.560;40.542;2022-11-22T10:27:12;3.10;;;2.80;;
72715;SDS011;60830;64.560;40.542;2022-11-22T10:43:44;2.80;;;2.60;;
72715;SDS011;60830;64.560;40.542;2022-11-22T10:46:16;3.35;;;3.00;;
72715;SDS011;60830;64.560;40.542;2022-11-22T10:51:40;3.75;;;3.42;;
72715;SDS011;60830;64.560;40.542;2022-11-22T10:54:15;3.80;;;3.05;;
72715;SDS011;60830;64.560;40.542;2022-11-22T11:04:31;5.95;;;3.97;;
72715;SDS011;60830;64.560;40.542;2022-11-22T11:06:58;7.80;;;3.80;;
72715;SDS011;60830;64.560;40.542;2022-11-22T11:11:51;7.03;;;6.40;;
72715;SDS011;60830;64.560;40.542;2022-11-22T11:16:44;5.10;;;4.18;;
72715;SDS011;60830;64.560;40.542;2022-11-22T11:19:16;4.50;;;3.85;;
72715;SDS011;60830;64.560;40.542;2022-11-22T11:21:42;5.78;;;2.92;;
72715;SDS011;60830;64.560;40.542;2022-11-22T11:24:11;4.13;;;3.72;;
72715;SDS011;60830;64.560;40.542;2022-11-22T11:26:37;5.07;;;4.07;;
72715;SDS011;60830;64.560;40.542;2022-11-22T11:32:03;3.67;;;3.38;;
72715;SDS011;60830;64.560;40.542;2022-11-22T11:34:27;3.25;;;2.90;;
72715;SDS011;60830;64.560;40.542;2022-11-22T11:36:57;2.65;;;2.25;;
72715;SDS011;60830;64.560;40.542;2022-11-22T11:39:27;3.25;;;2.58;;
72715;SDS011;60830;64.560;40.542;2022-11-22T11:41:53;2.88;;;2.58;;
72715;SDS011;60830;64.560;40.542;2022-11-22T11:46:56;5.55;;;4.18;;
72715;SDS011;60830;64.560;40.542;2022-11-22T11:49:25;3.55;;;3.25;;
72715;SDS011;60830;64.560;40.542;2022-11-22T11:51:56;3.95;;;2.90;;
72715;SDS011;60830;64.560;40.542;2022-11-22T11:54:44;16.52;;;10.65;;
72715;SDS011;60830;64.560;40.542;2022-11-22T11:59:47;3.40;;;2.80;;
72715;SDS011;60830;64.560;40.542;2022-11-22T12:07:22;9.00;;;3.53;;
72715;SDS011;60830;64.560;40.542;2022-11-22T12:09:50;4.68;;;3.40;;
72715;SDS011;60830;64.560;40.542;2022-11-22T12:12:26;3.58;;;3.28;;
72715;SDS011;60830;64.560;40.542;2022-11-22T12:15:10;3.67;;;2.85;;
72715;SDS011;60830;64.560;40.542;2022-11-22T12:18:01;4.13;;;3.72;;
72715;SDS011;60830;64.560;40.542;2022-11-22T12:20:25;3.72;;;2.85;;
72715;SDS011;60830;64.560;40.542;2022-11-22T12:27:54;3.95;;;3.40;;
72715;SDS011;60830;64.560;40.542;2022-11-22T12:30:21;3.42;;;3.13;;
72715;SDS011;60830;64.560;40.542;2022-11-22T12:32:58;5.68;;;3.72;;
72715;SDS011;60830;64.560;40.542;2022-11-22T12:35:25;4.70;;;3.97;;
72715;SDS011;60830;64.560;40.542;2022-11-22T12:37:53;6.70;;;4.10;;
72715;SDS011;60830;64.560;40.542;2022-11-22T12:40:24;13.98;;;4.93;;
72715;SDS011;60830;64.560;40.542;2022-11-22T12:42:53;5.25;;;3.90;;
72715;SDS011;60830;64.560;40.542;2022-11-22T12:47:49;5.82;;;4.68;;
72715;SDS011;60830;64.560;40.542;2022-11-22T12:52:46;7.90;;;5.38;;
72715;SDS011;60830;64.560;40.542;2022-11-22T12:55:18;9.02;;;5.28;;
72715;SDS011;60830;64.560;40.542;2022-11-22T12:57:53;6.72;;;4.80;;
72715;SDS011;60830;64.560;40.542;2022-11-22T13:00:22;7.75;;;5.60;;
72715;SDS011;60830;64.560;40.542;2022-11-22T13:02:59;8.60;;;5.95;;
72715;SDS011;60830;64.560;40.542;2022-11-22T13:05:30;8.13;;;4.97;;
72715;SDS011;60830;64.560;40.542;2022-11-22T13:08:42;8.82;;;5.85;;
72715;SDS011;60830;64.560;40.542;2022-11-22T13:13:21;7.80;;;5.80;;
72715;SDS011;60830;64.560;40.542;2022-11-22T13:18:14;6.72;;;5.35;;
72715;SDS011;60830;64.560;40.542;2022-11-22T13:20:44;6.88;;;5.63;;
72715;SDS011;60830;64.560;40.542;2022-11-22T13:28:24;10.07;;;6.07;;
72715;SDS011;60830;64.560;40.542;2022-11-22T13:31:13;8.98;;;6.70;;
72715;SDS011;60830;64.560;40.542;2022-11-22T13:33:53;9.90;;;7.28;;
72715;SDS011;60830;64.560;40.542;2022-11-22T13:36:24;11.00;;;8.50;;
72715;SDS011;60830;64.560;40.542;2022-11-22T13:39:00;9.63;;;7.65;;
72715;SDS011;60830;64.560;40.542;2022-11-22T13:47:00;13.13;;;8.15;;
72715;SDS011;60830;64.560;40.542;2022-11-22T13:49:35;12.57;;;8.60;;
72715;SDS011;60830;64.560;40.542;2022-11-22T13:52:04;12.20;;;8.93;;
72715;SDS011;60830;64.560;40.542;2022-11-22T13:57:25;12.23;;;8.77;;
72715;SDS011;60830;64.560;40.542;2022-11-22T14:02:43;19.60;;;10.65;;
72715;SDS011;60830;64.560;40.542;2022-11-22T14:07:48;18.90;;;13.45;;
72715;SDS011;60830;64.560;40.542;2022-11-22T14:13:00;21.67;;;13.63;;
72715;SDS011;60830;64.560;40.542;2022-11-22T14:15:46;26.33;;;15.90;;
72715;SDS011;60830;64.560;40.542;2022-11-22T14:21:04;25.08;;;17.23;;
72715;SDS011;60830;64.560;40.542;2022-11-22T14:23:47;25.25;;;15.27;;
72715;SDS011;60830;64.560;40.542;2022-11-22T14:28:53;28.60;;;18.95;;
72715;SDS011;60830;64.560;40.542;2022-11-22T14:31:30;26.42;;;17.50;;
72715;SDS011;60830;64.560;40.542;2022-11-22T14:34:15;27.00;;;18.02;;
72715;SDS011;60830;64.560;40.542;2022-11-22T14:36:41;27.73;;;18.17;;
72715;SDS011;60830;64.560;40.542;2022-11-22T14:41:52;38.08;;;23.88;;
72715;SDS011;60830;64.560;40.542;2022-11-22T14:44:18;29.65;;;17.35;;
72715;SDS011;60830;64.560;40.542;2022-11-22T14:46:47;31.60;;;18.77;;
72715;SDS011;60830;64.560;40.542;2022-11-22T14:52:00;31.27;;;20.17;;
72715;SDS011;60830;64.560;40.542;2022-11-22T14:54:28;30.85;;;20.65;;
72715;SDS011;60830;64.560;40.542;2022-11-22T14:56:55;40.03;;;22.65;;
72715;SDS011;60830;64.560;40.542;2022-11-22T14:59:49;38.33;;;21.75;;
72715;SDS011;60830;64.560;40.542;2022-11-22T15:03:01;31.92;;;20.25;;
72715;SDS011;60830;64.560;40.542;2022-11-22T15:17:41;34.08;;;22.70;;
72715;SDS011;60830;64.560;40.542;2022-11-22T15:22:52;34.67;;;19.55;;
72715;SDS011;60830;64.560;40.542;2022-11-22T15:25:18;32.25;;;16.98;;
72715;SDS011;60830;64.560;40.542;2022-11-22T15:27:44;28.20;;;19.55;;
72715;SDS011;60830;64.560;40.542;2022-11-22T15:30:26;25.30;;;15.70;;
72715;SDS011;60830;64.560;40.542;2022-11-22T15:32:52;34.35;;;18.80;;
72715;SDS011;60830;64.560;40.542;2022-11-22T15:35:20;31.55;;;18.10;;
72715;SDS011;60830;64.560;40.542;2022-11-22T15:40:20;22.75;;;14.20;;
72715;SDS011;60830;64.560;40.542;2022-11-22T15:45:19;30.98;;;18.38;;
72715;SDS011;60830;64.560;40.542;2022-11-22T15:47:48;32.50;;;18.30;;
72715;SDS011;60830;64.560;40.542;2022-11-22T15:50:16;36.10;;;19.85;;
72715;SDS011;60830;64.560;40.542;2022-11-22T15:52:51;29.80;;;16.20;;
72715;SDS011;60830;64.560;40.542;2022-11-22T15:55:18;29.67;;;15.40;;
72715;SDS011;60830;64.560;40.542;2022-11-22T15:57:45;36.33;;;18.40;;
72715;SDS011;60830;64.560;40.542;2022-11-22T16:00:20;45.47;;;25.95;;
72715;SDS011;60830;64.560;40.542;2022-11-22T16:02:48;36.83;;;19.95;;
72715;SDS011;60830;64.560;40.542;2022-11-22T16:05:20;41.20;;;22.75;;
72715;SDS011;60830;64.560;40.542;2022-11-22T16:07:47;38.55;;;18.48;;
72715;SDS011;60830;64.560;40.542;2022-11-22T16:10:21;26.42;;;14.93;;
72715;SDS011;60830;64.560;40.542;2022-11-22T16:12:48;27.88;;;15.55;;
72715;SDS011;60830;64.560;40.542;2022-11-22T16:15:28;31.77;;;17.15;;
72715;SDS011;60830;64.560;40.542;2022-11-22T16:18:00;31.05;;;16.48;;
72715;SDS011;60830;64.560;40.542;2022-11-22T16:20:31;29.48;;;15.27;;
72715;SDS011;60830;64.560;40.542;2022-11-22T16:23:02;32.95;;;15.07;;
72715;SDS011;60830;64.560;40.542;2022-11-22T16:25:32;26.38;;;14.52;;
72715;SDS011;60830;64.560;40.542;2022-11-22T16:28:00;25.52;;;13.55;;
72715;SDS011;60830;64.560;40.542;2022-11-22T16:30:28;29.45;;;14.77;;
72715;SDS011;60830;64.560;40.542;2022-11-22T16:32:54;34.50;;;15.90;;
72715;SDS011;60830;64.560;40.542;2022-11-22T16:35:21;43.28;;;18.85;;
72715;SDS011;60830;64.560;40.542;2022-11-22T16:37:47;50.50;;;24.92;;
72715;SDS011;60830;64.560;40.542;2022-11-22T16:40:14;25.92;;;12.35;;
72715;SDS011;60830;64.560;40.542;2022-11-22T16:42:40;60.25;;;25.90;;
72715;SDS011;60830;64.560;40.542;2022-11-22T16:45:20;42.35;;;18.42;;